Time;durP1;ratioP1;P1;durP2;ratioP2;P2;SDS_P1;SDS_P2;PMS_P1;PMS_P2;Temp;Humidity;BMP_temperature;BMP_pressure;BME280_temperature;BME280_humidity;BME280_pressure;Samples;Min_cycle;Max_cycle;Signal;HPM_P1;HPM_P2
2022/10/19 00:02:20;;;;;;;21.48;7.20;;;13.00;99.90;;;;;;5030019;28;20190;-72
2022/10/19 00:04:48;;;;;;;32.80;7.45;;;13.00;99.90;;;;;;5040826;28;20213;-71
2022/10/19 00:07:14;;;;;;;16.80;7.32;;;13.00;99.90;;;;;;5035326;28;20182;-71
2022/10/19 00:09:48;;;;;;;23.50;8.15;;;13.10;99.90;;;;;;5033659;28;20232;-72
2022/10/19 00:12:16;;;;;;;14.23;7.50;;;13.00;99.90;;;;;;5036019;28;20181;-71
2022/10/19 00:14:44;;;;;;;25.00;7.78;;;13.10;99.90;;;;;;5034828;28;20180;-72
2022/10/19 00:17:12;;;;;;;15.25;7.40;;;13.00;99.90;;;;;;5035362;28;20182;-71
2022/10/19 00:19:39;;;;;;;10.20;6.93;;;13.10;99.90;;;;;;5050016;28;20182;-72
2022/10/19 00:22:05;;;;;;;16.92;8.10;;;13.10;99.90;;;;;;5032300;28;20178;-72
2022/10/19 00:24:31;;;;;;;21.17;7.70;;;13.10;99.90;;;;;;5034005;28;20267;-72
2022/10/19 00:26:56;;;;;;;12.95;7.07;;;13.10;99.90;;;;;;5035625;28;20188;-72
2022/10/19 00:29:24;;;;;;;15.73;7.88;;;13.10;99.90;;;;;;5035365;28;20267;-72
2022/10/19 00:31:50;;;;;;;18.17;7.85;;;13.10;99.90;;;;;;5025828;28;20202;-72
2022/10/19 00:34:16;;;;;;;24.92;8.48;;;13.10;99.90;;;;;;5025670;28;20192;-72
2022/10/19 00:36:45;;;;;;;15.25;8.55;;;13.20;99.90;;;;;;5035670;28;20174;-72
2022/10/19 00:39:13;;;;;;;21.30;8.27;;;13.20;99.90;;;;;;5026101;28;20198;-72
2022/10/19 00:41:41;;;;;;;15.35;8.23;;;13.20;99.90;;;;;;5028163;28;20186;-72
2022/10/19 00:44:10;;;;;;;18.75;8.32;;;13.20;99.90;;;;;;5015793;28;20174;-72
2022/10/19 00:46:40;;;;;;;16.55;7.03;;;13.20;99.90;;;;;;5015612;28;20193;-72
2022/10/19 00:49:16;;;;;;;18.50;8.10;;;13.20;99.90;;;;;;5030079;28;20221;-72
2022/10/19 00:51:47;;;;;;;19.50;8.38;;;13.30;99.90;;;;;;5035085;28;20197;-72
2022/10/19 00:54:15;;;;;;;15.05;7.43;;;13.30;99.90;;;;;;5033314;28;20181;-72
2022/10/19 00:56:43;;;;;;;16.98;8.27;;;13.30;99.90;;;;;;5019471;28;20186;-72
2022/10/19 00:59:13;;;;;;;13.43;7.57;;;13.30;99.90;;;;;;5027493;28;20198;-71
2022/10/19 01:01:45;;;;;;;12.88;6.72;;;13.30;99.90;;;;;;5035027;28;20217;-72
2022/10/19 01:04:12;;;;;;;17.55;7.40;;;13.30;99.90;;;;;;5035098;28;20162;-71
2022/10/19 01:06:39;;;;;;;12.48;7.43;;;13.30;99.90;;;;;;5034658;28;20224;-72
2022/10/19 01:09:07;;;;;;;17.00;8.10;;;13.20;99.90;;;;;;5034598;28;20197;-72
2022/10/19 01:11:53;;;;;;;25.08;8.00;;;13.20;99.90;;;;;;5035133;28;20178;-72
2022/10/19 01:14:46;;;;;;;12.95;7.63;;;13.20;99.90;;;;;;5045325;28;20183;-72
2022/10/19 01:17:27;;;;;;;24.35;7.38;;;13.30;99.90;;;;;;5031461;28;20174;-73
2022/10/19 01:20:20;;;;;;;20.00;7.45;;;13.30;99.90;;;;;;5014960;28;20194;-73
2022/10/19 01:23:19;;;;;;;10.52;5.72;;;13.20;99.90;;;;;;5016485;28;20181;-72
2022/10/19 01:25:50;;;;;;;6.07;5.38;;;13.30;99.90;;;;;;5017314;28;20199;-71
2022/10/19 01:28:16;;;;;;;11.27;5.88;;;13.20;99.90;;;;;;5027596;28;20182;-70
2022/10/19 01:31:11;;;;;;;9.38;5.20;;;13.20;99.90;;;;;;5033971;28;20220;-71
2022/10/19 01:33:49;;;;;;;13.85;5.55;;;13.30;99.90;;;;;;5034238;28;20197;-73
2022/10/19 01:36:30;;;;;;;12.55;6.22;;;13.20;99.90;;;;;;5031261;28;20182;-71
2022/10/19 01:38:59;;;;;;;7.50;5.68;;;13.20;99.90;;;;;;5014993;28;20186;-70
2022/10/19 01:41:47;;;;;;;10.27;5.32;;;13.20;99.90;;;;;;5019997;28;20197;-72
2022/10/19 01:44:30;;;;;;;10.38;4.63;;;13.10;99.90;;;;;;5028206;28;20317;-71
2022/10/19 01:47:00;;;;;;;18.70;4.47;;;13.10;99.90;;;;;;5031409;28;20194;-71
2022/10/19 01:49:31;;;;;;;20.48;4.60;;;13.10;99.90;;;;;;5027156;28;20203;-73
2022/10/19 01:52:02;;;;;;;14.07;4.13;;;13.10;99.90;;;;;;5033702;28;20170;-73
2022/10/19 01:54:35;;;;;;;14.13;5.00;;;13.00;99.90;;;;;;5031308;28;20237;-73
2022/10/19 01:57:10;;;;;;;6.38;4.60;;;13.00;99.90;;;;;;5021021;28;20183;-73
2022/10/19 01:59:37;;;;;;;7.13;4.13;;;12.90;99.90;;;;;;5027923;28;20312;-72
2022/10/19 02:02:10;;;;;;;8.27;4.68;;;12.90;99.90;;;;;;5034359;28;20198;-73
2022/10/19 02:04:38;;;;;;;7.80;3.97;;;12.90;99.90;;;;;;5043189;28;20181;-72
2022/10/19 02:07:07;;;;;;;7.55;3.80;;;12.80;99.90;;;;;;5032308;28;20206;-72
2022/10/19 02:09:37;;;;;;;9.60;4.20;;;12.80;99.90;;;;;;5034367;28;20194;-72
2022/10/19 02:12:09;;;;;;;13.82;3.97;;;12.80;99.90;;;;;;5034369;28;20162;-73
2022/10/19 02:14:46;;;;;;;9.60;3.90;;;12.70;99.90;;;;;;5033979;28;20178;-73
2022/10/19 02:17:19;;;;;;;11.88;4.10;;;12.70;99.90;;;;;;5020132;28;20183;-73
2022/10/19 02:19:46;;;;;;;7.88;4.40;;;12.70;99.90;;;;;;5029918;28;20267;-73
2022/10/19 02:22:15;;;;;;;11.43;4.80;;;12.70;99.90;;;;;;5033916;28;20178;-71
2022/10/19 02:24:43;;;;;;;9.23;5.57;;;12.70;99.90;;;;;;5033247;28;20176;-71
2022/10/19 02:27:11;;;;;;;24.17;5.53;;;12.70;99.90;;;;;;5033988;28;20201;-71
2022/10/19 02:29:38;;;;;;;10.20;5.30;;;12.70;99.90;;;;;;5033964;28;20202;-71
2022/10/19 02:32:04;;;;;;;11.38;5.70;;;12.70;99.90;;;;;;5033709;28;20209;-73
2022/10/19 02:34:36;;;;;;;10.73;5.03;;;12.60;99.90;;;;;;5030082;28;20204;-71
2022/10/19 02:37:02;;;;;;;5.80;4.82;;;12.70;99.90;;;;;;5030966;28;20174;-73
2022/10/19 02:39:30;;;;;;;7.55;5.25;;;12.60;99.90;;;;;;5016353;28;20187;-73
2022/10/19 02:42:12;;;;;;;12.45;5.30;;;12.60;99.90;;;;;;5032041;28;20182;-73
2022/10/19 02:44:43;;;;;;;8.52;5.20;;;12.60;99.90;;;;;;5037639;28;20170;-73
2022/10/19 02:47:14;;;;;;;16.88;5.93;;;12.60;99.90;;;;;;5036887;28;20278;-73
2022/10/19 02:49:42;;;;;;;10.05;5.25;;;12.60;99.90;;;;;;5037165;28;20190;-73
2022/10/19 02:52:10;;;;;;;27.95;5.30;;;12.60;99.90;;;;;;5037386;28;20170;-74
2022/10/19 02:54:38;;;;;;;15.60;4.78;;;12.60;99.90;;;;;;5037368;28;20193;-73
2022/10/19 02:57:14;;;;;;;8.52;4.35;;;12.50;99.90;;;;;;5037023;28;20197;-74
2022/10/19 02:59:40;;;;;;;9.32;4.63;;;12.50;99.90;;;;;;5037136;28;20208;-73
2022/10/19 03:02:06;;;;;;;22.08;5.15;;;12.50;99.90;;;;;;5017545;28;20226;-73
2022/10/19 03:04:34;;;;;;;10.18;4.95;;;12.50;99.90;;;;;;5037498;28;20247;-73
2022/10/19 03:07:00;;;;;;;7.20;4.80;;;12.50;99.90;;;;;;5037458;28;20178;-73
2022/10/19 03:09:26;;;;;;;8.38;5.07;;;12.40;99.90;;;;;;5036535;28;20221;-74
2022/10/19 03:11:51;;;;;;;22.25;5.90;;;12.30;99.90;;;;;;5036219;28;20174;-73
2022/10/19 03:14:17;;;;;;;7.85;5.53;;;12.40;99.90;;;;;;5026368;28;20174;-73
2022/10/19 03:16:43;;;;;;;5.82;5.03;;;12.40;99.90;;;;;;5029213;28;20249;-72
2022/10/19 03:19:13;;;;;;;13.48;5.45;;;12.30;99.90;;;;;;5035453;28;20185;-73
2022/10/19 03:21:38;;;;;;;9.48;5.20;;;12.30;99.90;;;;;;5037266;28;20193;-73
2022/10/19 03:24:04;;;;;;;8.25;4.97;;;12.30;99.90;;;;;;5037075;28;20188;-74
2022/10/19 03:26:30;;;;;;;8.63;6.38;;;12.30;99.90;;;;;;5028852;28;20170;-74
2022/10/19 03:28:58;;;;;;;9.23;7.32;;;12.30;99.90;;;;;;5017374;28;20299;-73
2022/10/19 03:31:25;;;;;;;11.15;6.55;;;12.30;99.90;;;;;;5033981;28;20182;-74
2022/10/19 03:33:51;;;;;;;8.65;5.40;;;12.30;99.90;;;;;;5026956;28;20171;-74
2022/10/19 03:36:20;;;;;;;9.07;7.57;;;12.30;99.90;;;;;;5017084;28;20190;-72
2022/10/19 03:38:48;;;;;;;12.75;7.40;;;12.30;99.90;;;;;;5045438;28;20170;-75
2022/10/19 03:41:13;;;;;;;13.05;6.47;;;12.20;99.90;;;;;;5034670;28;20174;-74
2022/10/19 03:43:41;;;;;;;11.32;6.57;;;12.20;99.90;;;;;;5034949;28;20277;-74
2022/10/19 03:46:09;;;;;;;12.88;6.00;;;12.30;99.90;;;;;;5017064;28;20336;-74
2022/10/19 03:48:39;;;;;;;8.70;6.70;;;12.20;99.90;;;;;;5025367;28;20198;-74
2022/10/19 03:51:13;;;;;;;17.83;7.15;;;12.20;99.90;;;;;;5036564;28;20194;-73
2022/10/19 03:53:39;;;;;;;13.73;7.93;;;12.20;99.90;;;;;;5036091;28;20162;-73
2022/10/19 03:56:06;;;;;;;8.68;6.93;;;12.20;99.90;;;;;;5034789;28;20205;-73
2022/10/19 03:58:36;;;;;;;9.82;6.38;;;12.20;99.90;;;;;;5036148;28;20166;-73
2022/10/19 04:01:06;;;;;;;8.30;5.85;;;12.10;99.90;;;;;;5035687;28;20202;-73
2022/10/19 04:03:37;;;;;;;9.07;5.13;;;12.10;99.90;;;;;;5036263;28;20210;-73
2022/10/19 04:06:08;;;;;;;7.57;5.05;;;12.10;99.90;;;;;;5032457;28;20328;-73
2022/10/19 04:08:34;;;;;;;10.80;5.55;;;12.00;99.90;;;;;;5036349;28;20204;-73
2022/10/19 04:11:01;;;;;;;10.38;5.72;;;12.00;99.90;;;;;;5036048;28;20158;-73
2022/10/19 04:13:28;;;;;;;8.15;5.35;;;12.00;99.90;;;;;;5019781;28;20232;-73
2022/10/19 04:15:53;;;;;;;8.20;5.40;;;12.00;99.90;;;;;;5023788;28;20260;-73
2022/10/19 04:18:19;;;;;;;14.27;5.65;;;11.90;99.90;;;;;;5032955;28;20178;-73
2022/10/19 04:20:45;;;;;;;8.65;6.32;;;11.90;99.90;;;;;;5016089;28;20244;-73
2022/10/19 04:23:10;;;;;;;9.52;7.05;;;12.00;99.90;;;;;;5028637;28;20217;-73
2022/10/19 04:25:38;;;;;;;9.93;7.00;;;12.00;99.90;;;;;;5035700;28;20186;-73
2022/10/19 04:28:06;;;;;;;15.10;5.43;;;12.00;99.90;;;;;;5035768;28;20192;-72
2022/10/19 04:30:34;;;;;;;10.60;5.70;;;12.00;99.90;;;;;;5034828;28;20201;-74
2022/10/19 04:33:01;;;;;;;7.88;5.80;;;12.00;99.90;;;;;;5031053;28;20178;-72
2022/10/19 04:35:27;;;;;;;13.43;5.60;;;11.90;99.90;;;;;;5016706;28;20190;-73
2022/10/19 04:37:52;;;;;;;9.02;4.88;;;11.90;99.90;;;;;;5026795;28;20241;-73
2022/10/19 04:40:18;;;;;;;8.02;4.72;;;12.00;99.90;;;;;;5023869;28;20185;-73
2022/10/19 04:42:44;;;;;;;7.03;4.85;;;12.00;99.90;;;;;;5021891;28;20211;-74
2022/10/19 04:45:09;;;;;;;9.70;4.90;;;11.90;99.90;;;;;;5016160;28;20224;-74
2022/10/19 04:47:35;;;;;;;6.38;4.95;;;12.00;99.90;;;;;;5015717;28;20179;-71
2022/10/19 04:50:01;;;;;;;8.07;4.60;;;12.00;99.90;;;;;;5027553;28;20241;-72
2022/10/19 04:52:26;;;;;;;7.78;5.30;;;11.90;99.90;;;;;;5030672;28;20166;-72
2022/10/19 04:54:52;;;;;;;8.45;5.32;;;12.00;99.90;;;;;;5033081;28;20174;-71
2022/10/19 04:57:20;;;;;;;8.15;5.38;;;11.90;99.90;;;;;;5018253;28;20198;-72
2022/10/19 04:59:46;;;;;;;8.90;5.15;;;11.90;99.90;;;;;;5034372;28;20194;-73
2022/10/19 05:02:11;;;;;;;12.00;4.65;;;11.90;99.90;;;;;;5033406;28;20189;-74
2022/10/19 05:04:39;;;;;;;10.50;5.05;;;11.90;99.90;;;;;;5039025;28;20275;-72
2022/10/19 05:07:05;;;;;;;9.35;5.15;;;11.90;99.90;;;;;;5039317;28;20186;-72
2022/10/19 05:09:33;;;;;;;7.07;4.93;;;12.00;99.90;;;;;;5024178;28;20194;-73
2022/10/19 05:11:58;;;;;;;13.73;5.13;;;11.90;99.90;;;;;;5015367;28;20199;-72
2022/10/19 05:14:26;;;;;;;7.35;5.10;;;11.90;99.90;;;;;;5029602;28;20185;-72
2022/10/19 05:16:51;;;;;;;7.00;5.00;;;11.90;99.90;;;;;;5029862;28;20170;-71
2022/10/19 05:19:17;;;;;;;7.88;5.10;;;11.90;99.90;;;;;;5025237;28;20234;-72
2022/10/19 05:21:45;;;;;;;9.00;5.78;;;11.90;99.90;;;;;;5034400;28;20186;-73
2022/10/19 05:24:13;;;;;;;8.40;5.35;;;11.90;99.90;;;;;;5031151;28;20183;-73
2022/10/19 05:26:39;;;;;;;9.13;5.57;;;11.90;99.90;;;;;;5016276;28;20208;-73
2022/10/19 05:29:09;;;;;;;10.55;5.80;;;11.90;99.90;;;;;;5015271;28;20198;-73
2022/10/19 05:31:35;;;;;;;8.05;5.50;;;11.80;99.90;;;;;;5017214;28;20209;-74
2022/10/19 05:34:02;;;;;;;11.73;5.47;;;11.90;99.90;;;;;;5033012;28;20197;-73
2022/10/19 05:36:36;;;;;;;7.88;5.25;;;11.80;99.90;;;;;;5044685;28;20181;-73
2022/10/19 05:39:07;;;;;;;15.18;6.05;;;11.90;99.90;;;;;;5040010;28;20188;-74
2022/10/19 05:41:36;;;;;;;7.30;5.47;;;11.80;99.90;;;;;;5025179;28;20195;-74
2022/10/19 05:44:02;;;;;;;7.55;5.32;;;11.80;99.90;;;;;;5032169;28;20204;-75
2022/10/19 05:46:29;;;;;;;10.50;5.63;;;11.80;99.90;;;;;;5024881;28;20184;-75
2022/10/19 05:48:56;;;;;;;8.20;5.20;;;11.80;99.90;;;;;;5023732;28;20203;-74
2022/10/19 05:51:24;;;;;;;8.18;5.43;;;11.80;99.90;;;;;;5035550;28;20162;-74
2022/10/19 05:53:52;;;;;;;10.57;5.93;;;11.70;99.90;;;;;;5034964;28;20184;-74
2022/10/19 05:56:22;;;;;;;11.27;5.95;;;11.80;99.90;;;;;;5035303;28;20166;-75
2022/10/19 05:58:51;;;;;;;10.13;5.85;;;11.70;99.90;;;;;;5034898;28;20194;-73
2022/10/19 06:01:20;;;;;;;9.40;5.90;;;11.70;99.90;;;;;;5034338;28;20190;-73
2022/10/19 06:03:50;;;;;;;9.50;6.38;;;11.70;99.90;;;;;;5029736;28;20202;-73
2022/10/19 06:06:21;;;;;;;10.57;6.63;;;11.70;99.90;;;;;;5039550;28;20223;-74
2022/10/19 06:08:50;;;;;;;12.68;6.30;;;11.70;99.90;;;;;;5033720;28;20202;-74
2022/10/19 06:11:28;;;;;;;11.07;6.90;;;11.70;99.90;;;;;;5034487;28;20288;-74
2022/10/19 06:13:57;;;;;;;11.60;6.68;;;11.70;99.90;;;;;;5035312;28;20383;-73
2022/10/19 06:16:23;;;;;;;9.90;6.38;;;11.70;99.90;;;;;;5034223;28;20165;-74
2022/10/19 06:18:49;;;;;;;9.05;5.70;;;11.70;99.90;;;;;;5035984;28;20189;-73
2022/10/19 06:21:20;;;;;;;8.43;5.95;;;11.80;99.90;;;;;;5037378;28;20185;-73
2022/10/19 06:23:58;;;;;;;10.98;6.00;;;11.80;99.90;;;;;;5039444;28;20158;-74
2022/10/19 06:26:27;;;;;;;7.13;5.38;;;11.70;99.90;;;;;;5019047;28;20186;-74
2022/10/19 06:28:59;;;;;;;8.35;5.05;;;11.70;99.90;;;;;;5031703;28;20219;-73
2022/10/19 06:31:39;;;;;;;10.30;5.82;;;11.80;99.90;;;;;;5051227;28;20174;-74
2022/10/19 06:34:05;;;;;;;10.90;5.45;;;11.70;99.90;;;;;;5038229;28;20181;-74
2022/10/19 06:36:31;;;;;;;9.63;5.68;;;11.70;99.90;;;;;;5033524;28;20205;-74
2022/10/19 06:39:01;;;;;;;9.07;5.28;;;11.80;99.90;;;;;;5034022;28;20181;-73
2022/10/19 06:41:33;;;;;;;9.50;5.45;;;11.80;99.90;;;;;;5037956;28;20174;-74
2022/10/19 06:43:58;;;;;;;7.90;5.15;;;11.70;99.90;;;;;;5028604;28;20194;-74
2022/10/19 06:46:25;;;;;;;10.75;5.30;;;11.70;99.90;;;;;;5038312;28;20188;-73
2022/10/19 06:48:59;;;;;;;8.90;5.82;;;11.70;99.90;;;;;;5037701;28;20178;-74
2022/10/19 06:51:29;;;;;;;9.20;5.50;;;11.70;99.90;;;;;;5038216;28;20197;-74
2022/10/19 06:53:55;;;;;;;9.88;5.63;;;11.70;99.90;;;;;;5037354;28;20186;-74
2022/10/19 06:56:24;;;;;;;8.68;5.22;;;11.70;99.90;;;;;;5033398;28;20247;-74
2022/10/19 06:58:50;;;;;;;10.00;5.60;;;11.70;99.90;;;;;;5019844;28;20253;-73
2022/10/19 07:01:18;;;;;;;10.65;5.95;;;11.70;99.90;;;;;;5018531;28;20191;-74
2022/10/19 07:03:46;;;;;;;9.52;5.93;;;11.70;99.90;;;;;;5031691;28;20214;-73
2022/10/19 07:06:17;;;;;;;9.35;5.50;;;11.70;99.90;;;;;;5027213;28;20368;-74
2022/10/19 07:08:43;;;;;;;9.88;5.22;;;11.70;99.90;;;;;;5057435;28;20219;-74
2022/10/19 07:11:11;;;;;;;10.48;6.03;;;11.70;99.90;;;;;;5040044;28;20208;-73
2022/10/19 07:13:37;;;;;;;10.68;5.90;;;11.70;99.90;;;;;;5036856;28;20260;-73
2022/10/19 07:16:10;;;;;;;8.70;5.43;;;11.70;99.90;;;;;;5037468;28;20260;-74
2022/10/19 07:18:37;;;;;;;11.48;5.53;;;11.70;99.90;;;;;;5036774;28;20204;-73
2022/10/19 07:21:08;;;;;;;10.45;5.97;;;11.70;99.90;;;;;;5036965;28;20189;-73
2022/10/19 07:23:36;;;;;;;9.73;5.63;;;11.70;99.90;;;;;;5037193;28;20158;-74
2022/10/19 07:26:08;;;;;;;7.75;5.30;;;11.70;99.90;;;;;;5036319;28;20185;-72
2022/10/19 07:28:34;;;;;;;9.55;5.80;;;11.60;99.90;;;;;;5033322;28;20183;-74
2022/10/19 07:31:05;;;;;;;11.77;6.50;;;11.60;99.90;;;;;;5036130;28;20248;-74
2022/10/19 07:33:31;;;;;;;10.38;6.20;;;11.70;99.90;;;;;;5036986;28;20492;-73
2022/10/19 07:36:04;;;;;;;10.77;6.15;;;11.60;99.90;;;;;;5036029;28;20197;-73
2022/10/19 07:38:31;;;;;;;9.80;5.32;;;11.60;99.90;;;;;;5037236;28;20193;-73
2022/10/19 07:41:11;;;;;;;8.85;5.40;;;11.70;99.90;;;;;;5036401;28;20182;-71
2022/10/19 07:43:38;;;;;;;11.23;5.85;;;11.70;99.90;;;;;;5017280;28;20170;-73
2022/10/19 07:46:06;;;;;;;9.48;5.63;;;11.70;99.90;;;;;;5034706;28;20192;-74
2022/10/19 07:48:35;;;;;;;7.93;5.45;;;11.60;99.90;;;;;;5033227;28;20179;-72
2022/10/19 07:51:03;;;;;;;8.50;5.25;;;11.60;99.90;;;;;;5033135;28;20289;-72
2022/10/19 07:53:28;;;;;;;9.23;5.18;;;11.60;99.90;;;;;;5036460;28;20229;-73
2022/10/19 07:55:57;;;;;;;7.80;5.18;;;11.60;99.90;;;;;;5035626;28;20174;-73
2022/10/19 07:58:23;;;;;;;7.32;5.10;;;11.70;99.90;;;;;;5036337;28;20218;-73
2022/10/19 08:00:49;;;;;;;6.72;4.80;;;11.70;99.90;;;;;;5024792;28;20175;-73
2022/10/19 08:03:14;;;;;;;6.63;4.70;;;11.70;99.90;;;;;;5021413;28;20241;-73
2022/10/19 08:05:40;;;;;;;5.53;4.38;;;11.80;99.90;;;;;;5036025;28;20209;-74
2022/10/19 08:08:05;;;;;;;5.43;4.28;;;11.70;99.90;;;;;;5035793;28;20188;-74
2022/10/19 08:10:31;;;;;;;5.35;4.25;;;11.70;99.90;;;;;;5035854;28;20182;-73
2022/10/19 08:12:57;;;;;;;5.85;4.10;;;11.70;99.90;;;;;;5036179;28;20174;-73
2022/10/19 08:15:22;;;;;;;6.20;4.97;;;11.80;99.90;;;;;;5035276;28;20265;-73
2022/10/19 08:17:51;;;;;;;5.13;4.28;;;11.80;99.90;;;;;;5035321;28;20182;-71
2022/10/19 08:20:17;;;;;;;5.53;4.15;;;11.80;99.90;;;;;;5035884;28;20174;-73
2022/10/19 08:22:47;;;;;;;5.85;4.20;;;11.80;99.90;;;;;;5032794;28;20171;-72
2022/10/19 08:25:13;;;;;;;5.80;4.55;;;11.80;99.90;;;;;;5035282;28;20263;-72
2022/10/19 08:27:38;;;;;;;7.18;5.28;;;11.80;99.90;;;;;;5035763;28;20178;-72
2022/10/19 08:30:07;;;;;;;7.90;5.20;;;11.90;99.90;;;;;;5035440;28;20281;-72
2022/10/19 08:32:32;;;;;;;7.93;5.70;;;11.80;99.90;;;;;;5035399;28;20256;-73
2022/10/19 08:35:00;;;;;;;7.47;5.55;;;11.80;99.90;;;;;;5032807;28;20170;-73
2022/10/19 08:37:26;;;;;;;8.30;6.32;;;11.90;99.90;;;;;;5021969;28;20174;-72
2022/10/19 08:39:54;;;;;;;9.40;6.85;;;11.90;99.90;;;;;;5020957;28;20206;-73
2022/10/19 08:42:28;;;;;;;7.82;6.57;;;11.90;99.90;;;;;;5023843;28;20181;-72
2022/10/19 08:45:21;;;;;;;10.35;7.15;;;11.90;99.90;;;;;;5034703;28;20264;-73
2022/10/19 08:48:05;;;;;;;8.23;6.60;;;12.00;99.90;;;;;;5032125;28;20175;-73
2022/10/19 08:50:41;;;;;;;9.73;7.32;;;12.00;99.90;;;;;;5034991;28;20193;-73
2022/10/19 08:53:14;;;;;;;10.05;6.82;;;12.00;99.90;;;;;;5035095;28;20231;-73
2022/10/19 08:56:12;;;;;;;11.02;7.40;;;12.10;99.90;;;;;;5034384;28;20182;-74
2022/10/19 08:59:00;;;;;;;10.02;7.30;;;12.10;99.90;;;;;;5015489;28;20203;-73
2022/10/19 09:01:55;;;;;;;10.77;7.93;;;12.10;99.90;;;;;;5032767;28;20251;-75
2022/10/19 09:04:40;;;;;;;9.05;7.00;;;12.20;99.90;;;;;;5035003;28;20206;-77
2022/10/19 09:07:43;;;;;;;9.25;7.03;;;12.30;99.90;;;;;;5032824;28;20203;-76
2022/10/19 09:10:09;;;;;;;9.70;7.45;;;12.30;99.90;;;;;;5027550;28;20213;-78
2022/10/19 09:12:51;;;;;;;9.15;7.32;;;12.40;99.90;;;;;;5034267;28;20225;-77
2022/10/19 09:15:23;;;;;;;9.82;6.88;;;12.50;99.90;;;;;;5019792;28;20198;-77
2022/10/19 09:17:49;;;;;;;9.38;6.22;;;12.50;99.90;;;;;;5035228;28;20260;-77
2022/10/19 09:20:24;;;;;;;8.98;6.78;;;12.60;99.90;;;;;;5034990;28;20240;-77
2022/10/19 09:23:08;;;;;;;9.38;6.95;;;12.70;99.90;;;;;;5038917;28;20245;-76
2022/10/19 09:25:37;;;;;;;9.65;6.63;;;12.80;99.90;;;;;;5031407;28;20181;-78
2022/10/19 09:28:09;;;;;;;10.23;7.30;;;12.80;99.90;;;;;;5035944;28;20216;-78
2022/10/19 09:30:37;;;;;;;10.43;7.45;;;12.90;99.90;;;;;;5035312;28;20190;-77
2022/10/19 09:33:17;;;;;;;9.85;7.50;;;13.00;99.90;;;;;;5035387;28;20213;-78
2022/10/19 09:35:45;;;;;;;13.07;7.68;;;13.00;99.90;;;;;;5031539;28;20194;-77
2022/10/19 09:38:15;;;;;;;9.05;7.63;;;13.10;99.90;;;;;;5033441;28;20174;-78
2022/10/19 09:40:41;;;;;;;9.00;7.20;;;13.30;99.90;;;;;;5031919;28;20197;-77
2022/10/19 09:43:20;;;;;;;12.15;7.80;;;13.30;99.90;;;;;;5036810;28;20487;-75
2022/10/19 09:45:58;;;;;;;9.77;8.05;;;13.40;99.90;;;;;;5037933;28;20189;-78
2022/10/19 09:48:51;;;;;;;9.65;7.47;;;13.60;99.90;;;;;;5031900;28;20170;-77
2022/10/19 09:51:17;;;;;;;9.82;7.25;;;13.80;99.90;;;;;;5035127;28;20236;-77
2022/10/19 09:53:53;;;;;;;9.02;7.68;;;13.90;99.90;;;;;;5034839;28;20198;-79
2022/10/19 09:56:22;;;;;;;7.47;6.72;;;14.30;99.90;;;;;;5037684;28;20188;-78
2022/10/19 09:58:53;;;;;;;7.40;6.18;;;14.80;99.90;;;;;;5037586;28;20178;-77
2022/10/19 10:01:41;;;;;;;8.55;6.35;;;15.50;99.90;;;;;;5029874;28;20186;-77
2022/10/19 10:04:18;;;;;;;6.15;5.50;;;16.00;99.90;;;;;;5034804;28;20181;-77
2022/10/19 10:06:47;;;;;;;6.78;5.32;;;16.50;99.90;;;;;;5039237;28;20165;-78
2022/10/19 10:09:17;;;;;;;6.03;5.43;;;16.80;99.90;;;;;;5034906;28;20198;-78
2022/10/19 10:11:48;;;;;;;5.30;4.80;;;17.10;99.90;;;;;;5040621;28;20182;-77
2022/10/19 10:14:18;;;;;;;7.78;4.95;;;17.30;99.90;;;;;;5036015;28;20452;-78
2022/10/19 10:16:47;;;;;;;5.07;4.22;;;17.60;99.90;;;;;;5034733;28;20183;-76
2022/10/19 10:19:15;;;;;;;4.90;4.35;;;17.80;99.90;;;;;;5037210;28;20281;-77
2022/10/19 10:21:56;;;;;;;7.80;4.15;;;18.10;99.90;;;;;;5037558;28;20205;-76
2022/10/19 10:24:32;;;;;;;4.95;3.88;;;18.30;99.90;;;;;;5019075;28;20205;-78
2022/10/19 10:27:01;;;;;;;6.38;3.95;;;18.50;99.90;;;;;;5035030;28;20208;-77
2022/10/19 10:29:28;;;;;;;5.10;3.70;;;18.70;99.90;;;;;;5037720;28;20229;-78
2022/10/19 10:32:18;;;;;;;4.97;3.75;;;18.90;99.90;;;;;;5042537;28;20206;-78
2022/10/19 10:35:05;;;;;;;4.90;3.38;;;19.10;99.90;;;;;;5039444;28;20250;-77
2022/10/19 10:37:45;;;;;;;4.53;3.13;;;19.30;99.90;;;;;;5038804;28;20181;-77
2022/10/19 10:40:28;;;;;;;3.20;2.88;;;19.40;99.90;;;;;;5052998;28;20194;-78
2022/10/19 10:43:05;;;;;;;3.80;2.85;;;19.50;99.90;;;;;;5036150;28;20181;-78
2022/10/19 10:45:30;;;;;;;4.07;2.85;;;19.60;99.90;;;;;;5020527;28;20242;-80
2022/10/19 10:47:58;;;;;;;4.68;3.00;;;19.70;99.90;;;;;;5030582;28;20204;-77
2022/10/19 10:50:31;;;;;;;4.72;3.20;;;19.70;99.90;;;;;;5032757;28;20201;-77
2022/10/19 10:53:04;;;;;;;4.93;3.17;;;19.90;99.90;;;;;;5019752;28;20253;-78
2022/10/19 10:55:31;;;;;;;3.83;2.80;;;19.90;99.90;;;;;;5036705;28;20184;-77
2022/10/19 10:58:09;;;;;;;4.00;2.90;;;20.00;99.90;;;;;;5040673;28;20253;-78
2022/10/19 11:00:39;;;;;;;4.00;2.60;;;20.10;99.90;;;;;;5037548;28;20197;-78
2022/10/19 11:03:21;;;;;;;4.15;2.88;;;20.20;99.90;;;;;;5037154;28;20197;-76
2022/10/19 11:06:01;;;;;;;6.28;3.15;;;20.30;99.90;;;;;;5040928;28;20174;-78
2022/10/19 11:08:32;;;;;;;4.53;2.78;;;20.40;99.90;;;;;;5046971;28;20174;-78
2022/10/19 11:11:16;;;;;;;3.88;2.70;;;20.40;99.90;;;;;;5025331;28;20238;-79
2022/10/19 11:13:47;;;;;;;4.72;2.85;;;20.50;99.90;;;;;;5048344;28;20194;-77
2022/10/19 11:16:20;;;;;;;4.63;2.72;;;20.60;99.90;;;;;;5041924;28;20178;-79
2022/10/19 11:18:48;;;;;;;5.72;2.78;;;20.70;99.90;;;;;;5052000;28;20182;-76
2022/10/19 11:21:42;;;;;;;3.72;2.65;;;20.80;99.90;;;;;;5045593;28;20201;-77
2022/10/19 11:24:30;;;;;;;3.17;2.35;;;20.90;99.90;;;;;;5048388;28;20189;-77
2022/10/19 11:27:20;;;;;;;3.72;2.55;;;21.10;99.90;;;;;;5029488;28;20189;-77
2022/10/19 11:30:04;;;;;;;4.15;2.58;;;21.10;99.90;;;;;;5030889;28;20417;-74
2022/10/19 11:32:35;;;;;;;4.53;2.55;;;21.20;99.90;;;;;;5042186;28;20170;-77
2022/10/19 11:35:22;;;;;;;3.85;2.42;;;21.20;99.90;;;;;;5028262;28;20202;-76
2022/10/19 11:38:30;;;;;;;2.53;2.13;;;21.20;99.90;;;;;;5027144;28;20175;-78
2022/10/19 11:41:47;;;;;;;5.65;2.40;;;21.10;99.90;;;;;;5039450;28;20206;-77
2022/10/19 11:44:15;;;;;;;4.18;2.15;;;21.00;99.90;;;;;;5022485;28;20193;-76
2022/10/19 11:46:58;;;;;;;3.38;2.25;;;20.80;99.90;;;;;;5045477;28;20182;-77
2022/10/19 11:49:34;;;;;;;3.42;2.25;;;20.80;99.90;;;;;;5053802;28;20201;-77
2022/10/19 11:52:20;;;;;;;4.57;2.53;;;20.70;99.90;;;;;;5047865;28;20172;-75
2022/10/19 11:54:53;;;;;;;3.85;2.63;;;20.60;99.90;;;;;;5052360;28;20194;-77
2022/10/19 11:57:26;;;;;;;3.25;2.22;;;20.60;99.90;;;;;;5049940;28;20185;-77
2022/10/19 12:00:07;;;;;;;8.13;2.33;;;20.50;99.90;;;;;;5046204;28;20273;-76
2022/10/19 12:03:04;;;;;;;3.47;2.30;;;20.50;99.90;;;;;;5044378;28;20264;-78
2022/10/19 12:05:47;;;;;;;6.13;2.40;;;20.60;99.90;;;;;;5045074;28;20174;-78
2022/10/19 12:08:44;;;;;;;4.00;2.30;;;20.70;99.90;;;;;;5044495;28;20443;-76
2022/10/19 12:11:35;;;;;;;3.72;2.20;;;20.80;99.90;;;;;;5034491;28;20365;-78
2022/10/19 12:14:13;;;;;;;3.78;2.20;;;20.80;99.90;;;;;;5049637;28;20202;-73
2022/10/19 12:16:48;;;;;;;3.33;2.10;;;20.80;99.90;;;;;;5045954;28;20170;-75
2022/10/19 12:19:22;;;;;;;2.72;2.00;;;20.80;99.90;;;;;;5041936;28;20278;-77
2022/10/19 12:21:53;;;;;;;4.40;2.33;;;20.80;99.90;;;;;;5046898;28;20256;-77
2022/10/19 12:24:24;;;;;;;4.32;2.50;;;20.90;99.90;;;;;;5048480;28;20162;-77
2022/10/19 12:26:55;;;;;;;3.47;2.22;;;20.90;99.90;;;;;;5040345;28;20178;-76
2022/10/19 12:29:28;;;;;;;3.63;2.10;;;20.90;99.90;;;;;;5052661;28;20217;-77
2022/10/19 12:31:57;;;;;;;2.50;1.95;;;21.00;99.90;;;;;;5048956;28;20170;-78
2022/10/19 12:34:47;;;;;;;4.07;2.08;;;21.10;99.90;;;;;;5048752;28;20177;-78
2022/10/19 12:37:47;;;;;;;4.57;2.42;;;21.20;99.90;;;;;;5028175;28;20224;-78
2022/10/19 12:40:30;;;;;;;4.38;2.47;;;21.40;99.90;;;;;;5059856;28;20244;-77
2022/10/19 12:43:14;;;;;;;4.38;2.72;;;21.60;99.90;;;;;;5053340;28;20198;-75
2022/10/19 12:45:50;;;;;;;3.42;2.20;;;21.70;99.90;;;;;;5049842;28;20190;-77
2022/10/19 12:48:20;;;;;;;4.88;2.30;;;21.80;99.90;;;;;;5043619;28;20212;-76
2022/10/19 12:50:49;;;;;;;4.20;2.28;;;21.90;99.90;;;;;;5044049;28;20206;-77
2022/10/19 12:53:40;;;;;;;2.58;2.08;;;22.00;99.90;;;;;;5044034;28;20260;-76
2022/10/19 12:56:09;;;;;;;5.82;2.47;;;22.10;99.90;;;;;;5040756;28;20202;-78
2022/10/19 12:58:40;;;;;;;4.22;2.30;;;22.10;99.90;;;;;;5046227;28;20226;-77
2022/10/19 13:01:08;;;;;;;5.32;2.40;;;22.10;99.90;;;;;;5048646;28;20273;-75
2022/10/19 13:03:43;;;;;;;4.95;2.33;;;22.10;99.90;;;;;;5026466;28;20193;-76
2022/10/19 13:06:18;;;;;;;2.70;2.13;;;22.20;99.90;;;;;;5045856;28;20178;-73
2022/10/19 13:09:06;;;;;;;3.72;2.05;;;22.20;99.90;;;;;;5039751;28;20208;-77